sensor_id;sensor_type;location;lat;lon;timestamp;P1;durP1;ratioP1;P2;durP2;ratioP2
27293;SDS011;14785;52.556;13.430;2024-03-29T00:00:39;14.85;;;13.85;;
27293;SDS011;14785;52.556;13.430;2024-03-29T00:03:05;12.60;;;11.70;;
27293;SDS011;14785;52.556;13.430;2024-03-29T00:07:57;8.60;;;7.80;;
27293;SDS011;14785;52.556;13.430;2024-03-29T00:10:22;10.20;;;9.57;;
27293;SDS011;14785;52.556;13.430;2024-03-29T00:12:48;24.23;;;22.93;;
27293;SDS011;14785;52.556;13.430;2024-03-29T00:15:13;19.07;;;17.97;;
27293;SDS011;14785;52.556;13.430;2024-03-29T00:17:39;19.53;;;18.33;;
27293;SDS011;14785;52.556;13.430;2024-03-29T00:20:04;35.93;;;33.83;;
27293;SDS011;14785;52.556;13.430;2024-03-29T00:22:31;50.00;;;47.20;;
27293;SDS011;14785;52.556;13.430;2024-03-29T00:24:56;24.73;;;23.10;;
27293;SDS011;14785;52.556;13.430;2024-03-29T00:27:22;9.90;;;9.23;;
27293;SDS011;14785;52.556;13.430;2024-03-29T00:29:50;9.35;;;8.57;;
27293;SDS011;14785;52.556;13.430;2024-03-29T00:32:18;7.63;;;7.13;;
27293;SDS011;14785;52.556;13.430;2024-03-29T00:34:47;6.10;;;5.38;;
27293;SDS011;14785;52.556;13.430;2024-03-29T00:37:14;9.68;;;9.05;;
27293;SDS011;14785;52.556;13.430;2024-03-29T00:39:40;13.55;;;12.73;;
27293;SDS011;14785;52.556;13.430;2024-03-29T00:42:06;13.02;;;12.07;;
27293;SDS011;14785;52.556;13.430;2024-03-29T00:44:34;17.02;;;15.98;;
27293;SDS011;14785;52.556;13.430;2024-03-29T00:47:00;17.23;;;16.20;;
27293;SDS011;14785;52.556;13.430;2024-03-29T00:49:26;14.95;;;14.05;;
27293;SDS011;14785;52.556;13.430;2024-03-29T00:51:51;8.93;;;8.33;;
27293;SDS011;14785;52.556;13.430;2024-03-29T00:54:18;28.75;;;27.05;;
27293;SDS011;14785;52.556;13.430;2024-03-29T00:56:44;25.27;;;23.73;;
27293;SDS011;14785;52.556;13.430;2024-03-29T00:59:10;17.60;;;16.43;;
27293;SDS011;14785;52.556;13.430;2024-03-29T01:01:35;7.53;;;7.00;;
27293;SDS011;14785;52.556;13.430;2024-03-29T01:04:01;13.87;;;13.07;;
27293;SDS011;14785;52.556;13.430;2024-03-29T01:06:26;7.73;;;7.13;;
27293;SDS011;14785;52.556;13.430;2024-03-29T01:08:51;15.60;;;14.67;;
27293;SDS011;14785;52.556;13.430;2024-03-29T01:11:17;9.80;;;8.97;;
27293;SDS011;14785;52.556;13.430;2024-03-29T01:13:42;6.27;;;5.77;;
27293;SDS011;14785;52.556;13.430;2024-03-29T01:16:07;27.53;;;25.93;;
27293;SDS011;14785;52.556;13.430;2024-03-29T01:18:33;5.93;;;5.40;;
27293;SDS011;14785;52.556;13.430;2024-03-29T01:20:59;8.93;;;8.23;;
27293;SDS011;14785;52.556;13.430;2024-03-29T01:23:24;8.60;;;8.00;;
27293;SDS011;14785;52.556;13.430;2024-03-29T01:25:49;17.77;;;16.70;;
27293;SDS011;14785;52.556;13.430;2024-03-29T01:28:15;10.33;;;9.43;;
27293;SDS011;14785;52.556;13.430;2024-03-29T01:30:40;7.17;;;6.50;;
27293;SDS011;14785;52.556;13.430;2024-03-29T01:33:06;8.70;;;7.90;;
27293;SDS011;14785;52.556;13.430;2024-03-29T01:35:31;5.60;;;5.13;;
27293;SDS011;14785;52.556;13.430;2024-03-29T01:37:56;6.60;;;6.20;;
27293;SDS011;14785;52.556;13.430;2024-03-29T01:40:22;8.23;;;7.43;;
27293;SDS011;14785;52.556;13.430;2024-03-29T01:42:47;9.63;;;9.03;;
27293;SDS011;14785;52.556;13.430;2024-03-29T01:45:13;15.10;;;14.13;;
27293;SDS011;14785;52.556;13.430;2024-03-29T01:47:38;10.80;;;9.80;;
27293;SDS011;14785;52.556;13.430;2024-03-29T01:50:04;16.23;;;15.02;;
27293;SDS011;14785;52.556;13.430;2024-03-29T01:52:30;7.28;;;6.68;;
27293;SDS011;14785;52.556;13.430;2024-03-29T01:54:57;6.47;;;5.55;;
27293;SDS011;14785;52.556;13.430;2024-03-29T01:57:22;7.67;;;7.07;;
27293;SDS011;14785;52.556;13.430;2024-03-29T01:59:48;7.68;;;7.18;;
27293;SDS011;14785;52.556;13.430;2024-03-29T02:02:15;8.25;;;7.60;;
27293;SDS011;14785;52.556;13.430;2024-03-29T02:04:41;9.77;;;9.13;;
27293;SDS011;14785;52.556;13.430;2024-03-29T02:07:08;8.23;;;7.43;;
27293;SDS011;14785;52.556;13.430;2024-03-29T02:09:33;7.47;;;6.67;;
27293;SDS011;14785;52.556;13.430;2024-03-29T02:11:58;6.63;;;6.13;;
27293;SDS011;14785;52.556;13.430;2024-03-29T02:14:24;6.73;;;6.13;;
27293;SDS011;14785;52.556;13.430;2024-03-29T02:16:49;7.17;;;6.67;;
27293;SDS011;14785;52.556;13.430;2024-03-29T02:19:15;7.37;;;6.63;;
27293;SDS011;14785;52.556;13.430;2024-03-29T02:21:41;9.37;;;7.03;;
27293;SDS011;14785;52.556;13.430;2024-03-29T02:24:10;8.32;;;7.72;;
27293;SDS011;14785;52.556;13.430;2024-03-29T02:26:41;7.45;;;6.90;;
27293;SDS011;14785;52.556;13.430;2024-03-29T02:29:10;8.40;;;7.70;;
27293;SDS011;14785;52.556;13.430;2024-03-29T02:31:36;8.48;;;7.68;;
27293;SDS011;14785;52.556;13.430;2024-03-29T02:34:01;8.50;;;7.20;;
27293;SDS011;14785;52.556;13.430;2024-03-29T02:36:27;8.17;;;7.00;;
27293;SDS011;14785;52.556;13.430;2024-03-29T02:38:55;6.78;;;6.28;;
27293;SDS011;14785;52.556;13.430;2024-03-29T02:41:21;6.80;;;6.20;;
27293;SDS011;14785;52.556;13.430;2024-03-29T02:43:47;6.88;;;6.38;;
27293;SDS011;14785;52.556;13.430;2024-03-29T02:46:12;6.77;;;6.10;;
27293;SDS011;14785;52.556;13.430;2024-03-29T02:48:38;6.80;;;6.23;;
27293;SDS011;14785;52.556;13.430;2024-03-29T02:51:03;8.40;;;7.60;;
27293;SDS011;14785;52.556;13.430;2024-03-29T02:53:29;9.17;;;8.27;;
27293;SDS011;14785;52.556;13.430;2024-03-29T02:55:54;7.40;;;6.80;;
27293;SDS011;14785;52.556;13.430;2024-03-29T02:58:20;6.80;;;6.00;;
27293;SDS011;14785;52.556;13.430;2024-03-29T03:00:45;7.77;;;7.13;;
27293;SDS011;14785;52.556;13.430;2024-03-29T03:03:10;9.13;;;8.20;;
27293;SDS011;14785;52.556;13.430;2024-03-29T03:05:36;8.23;;;7.67;;
27293;SDS011;14785;52.556;13.430;2024-03-29T03:08:01;10.85;;;10.05;;
27293;SDS011;14785;52.556;13.430;2024-03-29T03:10:46;14.75;;;13.80;;
27293;SDS011;14785;52.556;13.430;2024-03-29T03:13:21;7.00;;;6.40;;
27293;SDS011;14785;52.556;13.430;2024-03-29T03:15:47;8.50;;;7.27;;
27293;SDS011;14785;52.556;13.430;2024-03-29T03:18:12;8.50;;;6.93;;
27293;SDS011;14785;52.556;13.430;2024-03-29T03:20:38;8.43;;;7.83;;
27293;SDS011;14785;52.556;13.430;2024-03-29T03:23:04;10.95;;;9.95;;
27293;SDS011;14785;52.556;13.430;2024-03-29T03:25:32;9.87;;;9.10;;
27293;SDS011;14785;52.556;13.430;2024-03-29T03:27:59;9.63;;;8.60;;
27293;SDS011;14785;52.556;13.430;2024-03-29T03:30:25;11.38;;;10.13;;
27293;SDS011;14785;52.556;13.430;2024-03-29T03:32:51;10.93;;;9.93;;
27293;SDS011;14785;52.556;13.430;2024-03-29T03:35:16;9.93;;;8.93;;
27293;SDS011;14785;52.556;13.430;2024-03-29T03:37:42;12.73;;;11.60;;
27293;SDS011;14785;52.556;13.430;2024-03-29T03:40:07;12.60;;;11.60;;
27293;SDS011;14785;52.556;13.430;2024-03-29T03:42:33;10.43;;;9.73;;
27293;SDS011;14785;52.556;13.430;2024-03-29T03:44:58;13.77;;;12.73;;
27293;SDS011;14785;52.556;13.430;2024-03-29T03:47:24;13.03;;;11.80;;
27293;SDS011;14785;52.556;13.430;2024-03-29T03:49:49;10.30;;;9.43;;
27293;SDS011;14785;52.556;13.430;2024-03-29T03:52:14;13.70;;;12.77;;
27293;SDS011;14785;52.556;13.430;2024-03-29T03:54:40;12.47;;;11.23;;
27293;SDS011;14785;52.556;13.430;2024-03-29T03:57:05;10.97;;;10.27;;
27293;SDS011;14785;52.556;13.430;2024-03-29T03:59:31;15.13;;;14.00;;
27293;SDS011;14785;52.556;13.430;2024-03-29T04:01:56;12.85;;;11.75;;
27293;SDS011;14785;52.556;13.430;2024-03-29T04:04:22;11.87;;;10.87;;
27293;SDS011;14785;52.556;13.430;2024-03-29T04:06:47;11.60;;;10.70;;
27293;SDS011;14785;52.556;13.430;2024-03-29T04:09:15;11.73;;;10.60;;
27293;SDS011;14785;52.556;13.430;2024-03-29T04:11:41;10.93;;;10.10;;
27293;SDS011;14785;52.556;13.430;2024-03-29T04:14:07;11.70;;;10.77;;
27293;SDS011;14785;52.556;13.430;2024-03-29T04:16:33;12.65;;;11.68;;
27293;SDS011;14785;52.556;13.430;2024-03-29T04:18:59;11.07;;;10.23;;
27293;SDS011;14785;52.556;13.430;2024-03-29T04:21:24;13.30;;;12.27;;
27293;SDS011;14785;52.556;13.430;2024-03-29T04:23:49;11.60;;;10.60;;
27293;SDS011;14785;52.556;13.430;2024-03-29T04:26:16;10.68;;;9.82;;
27293;SDS011;14785;52.556;13.430;2024-03-29T04:28:42;11.43;;;10.63;;
27293;SDS011;14785;52.556;13.430;2024-03-29T04:31:07;12.37;;;11.27;;
27293;SDS011;14785;52.556;13.430;2024-03-29T04:33:33;13.57;;;12.43;;
27293;SDS011;14785;52.556;13.430;2024-03-29T04:36:01;10.73;;;9.90;;
27293;SDS011;14785;52.556;13.430;2024-03-29T04:38:29;9.23;;;8.38;;
27293;SDS011;14785;52.556;13.430;2024-03-29T04:40:57;8.73;;;8.02;;
27293;SDS011;14785;52.556;13.430;2024-03-29T04:43:24;8.80;;;8.07;;
27293;SDS011;14785;52.556;13.430;2024-03-29T04:46:00;8.75;;;7.88;;
27293;SDS011;14785;52.556;13.430;2024-03-29T04:48:33;10.40;;;9.60;;
27293;SDS011;14785;52.556;13.430;2024-03-29T04:50:59;10.13;;;9.33;;
27293;SDS011;14785;52.556;13.430;2024-03-29T04:53:24;7.20;;;6.50;;
27293;SDS011;14785;52.556;13.430;2024-03-29T04:55:54;7.32;;;5.93;;
27293;SDS011;14785;52.556;13.430;2024-03-29T04:58:21;6.18;;;5.78;;
27293;SDS011;14785;52.556;13.430;2024-03-29T05:00:48;6.82;;;6.13;;
27293;SDS011;14785;52.556;13.430;2024-03-29T05:03:14;6.45;;;5.75;;
27293;SDS011;14785;52.556;13.430;2024-03-29T05:05:39;8.20;;;6.40;;
27293;SDS011;14785;52.556;13.430;2024-03-29T05:08:05;9.15;;;8.35;;
27293;SDS011;14785;52.556;13.430;2024-03-29T05:10:31;8.30;;;7.43;;
27293;SDS011;14785;52.556;13.430;2024-03-29T05:12:56;8.48;;;7.78;;
27293;SDS011;14785;52.556;13.430;2024-03-29T05:15:22;9.10;;;8.20;;
27293;SDS011;14785;52.556;13.430;2024-03-29T05:17:47;7.57;;;6.87;;
27293;SDS011;14785;52.556;13.430;2024-03-29T05:20:12;11.97;;;8.80;;
27293;SDS011;14785;52.556;13.430;2024-03-29T05:22:38;9.80;;;8.88;;
27293;SDS011;14785;52.556;13.430;2024-03-29T05:25:04;9.23;;;8.20;;
27293;SDS011;14785;52.556;13.430;2024-03-29T05:27:29;8.60;;;7.90;;
27293;SDS011;14785;52.556;13.430;2024-03-29T05:29:56;10.17;;;7.30;;
27293;SDS011;14785;52.556;13.430;2024-03-29T05:32:22;7.80;;;7.00;;
27293;SDS011;14785;52.556;13.430;2024-03-29T05:34:47;8.17;;;7.40;;
27293;SDS011;14785;52.556;13.430;2024-03-29T05:37:13;7.47;;;6.87;;
27293;SDS011;14785;52.556;13.430;2024-03-29T05:39:42;8.40;;;7.63;;
27293;SDS011;14785;52.556;13.430;2024-03-29T05:42:07;7.83;;;7.17;;
27293;SDS011;14785;52.556;13.430;2024-03-29T05:44:34;10.33;;;8.43;;
27293;SDS011;14785;52.556;13.430;2024-03-29T05:47:02;8.50;;;7.80;;
27293;SDS011;14785;52.556;13.430;2024-03-29T05:49:29;9.25;;;8.50;;
27293;SDS011;14785;52.556;13.430;2024-03-29T05:51:55;9.73;;;8.83;;
27293;SDS011;14785;52.556;13.430;2024-03-29T05:54:20;9.00;;;8.30;;
27293;SDS011;14785;52.556;13.430;2024-03-29T05:56:47;10.10;;;9.40;;
27293;SDS011;14785;52.556;13.430;2024-03-29T05:59:13;10.55;;;9.50;;
27293;SDS011;14785;52.556;13.430;2024-03-29T06:01:38;12.33;;;11.43;;
27293;SDS011;14785;52.556;13.430;2024-03-29T06:04:04;11.30;;;10.40;;
27293;SDS011;14785;52.556;13.430;2024-03-29T06:06:38;10.70;;;9.90;;
27293;SDS011;14785;52.556;13.430;2024-03-29T06:09:03;10.40;;;9.13;;
27293;SDS011;14785;52.556;13.430;2024-03-29T06:11:29;10.38;;;9.50;;
27293;SDS011;14785;52.556;13.430;2024-03-29T06:13:55;7.50;;;6.90;;
27293;SDS011;14785;52.556;13.430;2024-03-29T06:16:27;9.63;;;8.80;;
27293;SDS011;14785;52.556;13.430;2024-03-29T06:19:12;7.90;;;7.18;;
27293;SDS011;14785;52.556;13.430;2024-03-29T06:21:41;8.15;;;7.40;;
27293;SDS011;14785;52.556;13.430;2024-03-29T06:24:08;8.77;;;7.85;;
27293;SDS011;14785;52.556;13.430;2024-03-29T06:26:38;9.27;;;8.20;;
27293;SDS011;14785;52.556;13.430;2024-03-29T06:29:04;10.00;;;8.75;;
27293;SDS011;14785;52.556;13.430;2024-03-29T06:31:30;8.90;;;8.07;;
27293;SDS011;14785;52.556;13.430;2024-03-29T06:33:56;9.00;;;8.10;;
27293;SDS011;14785;52.556;13.430;2024-03-29T06:36:24;8.13;;;7.43;;
27293;SDS011;14785;52.556;13.430;2024-03-29T06:38:50;8.52;;;7.95;;
27293;SDS011;14785;52.556;13.430;2024-03-29T06:41:16;8.80;;;8.00;;
27293;SDS011;14785;52.556;13.430;2024-03-29T06:43:41;7.90;;;7.20;;
27293;SDS011;14785;52.556;13.430;2024-03-29T06:46:11;8.35;;;7.00;;
27293;SDS011;14785;52.556;13.430;2024-03-29T06:48:37;8.75;;;7.47;;
27293;SDS011;14785;52.556;13.430;2024-03-29T06:51:02;7.90;;;7.20;;
27293;SDS011;14785;52.556;13.430;2024-03-29T06:55:54;7.60;;;6.82;;
27293;SDS011;14785;52.556;13.430;2024-03-29T06:58:22;7.05;;;6.32;;
27293;SDS011;14785;52.556;13.430;2024-03-29T07:00:48;10.27;;;6.47;;
27293;SDS011;14785;52.556;13.430;2024-03-29T07:03:15;8.32;;;7.53;;
27293;SDS011;14785;52.556;13.430;2024-03-29T07:05:40;9.85;;;7.70;;
27293;SDS011;14785;52.556;13.430;2024-03-29T07:08:06;8.87;;;7.23;;
27293;SDS011;14785;52.556;13.430;2024-03-29T07:10:32;11.18;;;9.18;;
27293;SDS011;14785;52.556;13.430;2024-03-29T07:12:57;9.20;;;7.90;;
27293;SDS011;14785;52.556;13.430;2024-03-29T07:17:49;7.25;;;6.57;;
27293;SDS011;14785;52.556;13.430;2024-03-29T07:22:41;6.38;;;5.85;;
27293;SDS011;14785;52.556;13.430;2024-03-29T07:25:07;8.20;;;7.40;;
27293;SDS011;14785;52.556;13.430;2024-03-29T07:27:32;10.87;;;10.07;;
27293;SDS011;14785;52.556;13.430;2024-03-29T07:30:00;11.07;;;10.15;;
27293;SDS011;14785;52.556;13.430;2024-03-29T07:32:29;8.90;;;7.88;;
27293;SDS011;14785;52.556;13.430;2024-03-29T07:37:23;8.65;;;7.45;;
27293;SDS011;14785;52.556;13.430;2024-03-29T07:39:49;7.80;;;6.93;;
27293;SDS011;14785;52.556;13.430;2024-03-29T07:42:14;7.77;;;7.10;;
27293;SDS011;14785;52.556;13.430;2024-03-29T07:44:40;8.73;;;7.00;;
27293;SDS011;14785;52.556;13.430;2024-03-29T07:47:05;9.83;;;8.93;;
27293;SDS011;14785;52.556;13.430;2024-03-29T07:49:31;9.03;;;8.03;;
27293;SDS011;14785;52.556;13.430;2024-03-29T07:51:56;10.70;;;9.80;;
27293;SDS011;14785;52.556;13.430;2024-03-29T07:54:21;10.77;;;9.87;;
27293;SDS011;14785;52.556;13.430;2024-03-29T07:56:47;8.17;;;7.40;;
27293;SDS011;14785;52.556;13.430;2024-03-29T07:59:12;7.67;;;6.87;;
27293;SDS011;14785;52.556;13.430;2024-03-29T08:01:38;7.60;;;6.40;;
27293;SDS011;14785;52.556;13.430;2024-03-29T08:04:06;11.25;;;6.45;;
27293;SDS011;14785;52.556;13.430;2024-03-29T08:06:33;8.57;;;6.00;;
27293;SDS011;14785;52.556;13.430;2024-03-29T08:08:58;11.32;;;10.38;;
27293;SDS011;14785;52.556;13.430;2024-03-29T08:11:24;16.00;;;14.75;;
27293;SDS011;14785;52.556;13.430;2024-03-29T08:13:50;19.27;;;17.63;;
27293;SDS011;14785;52.556;13.430;2024-03-29T08:16:15;16.90;;;15.73;;
27293;SDS011;14785;52.556;13.430;2024-03-29T08:18:42;12.60;;;11.57;;
27293;SDS011;14785;52.556;13.430;2024-03-29T08:21:10;11.27;;;10.38;;
27293;SDS011;14785;52.556;13.430;2024-03-29T08:23:36;10.00;;;9.13;;
27293;SDS011;14785;52.556;13.430;2024-03-29T08:26:04;10.13;;;9.23;;
27293;SDS011;14785;52.556;13.430;2024-03-29T08:28:30;7.00;;;6.50;;
27293;SDS011;14785;52.556;13.430;2024-03-29T08:33:25;10.02;;;8.40;;
27293;SDS011;14785;52.556;13.430;2024-03-29T08:35:50;9.67;;;8.87;;
27293;SDS011;14785;52.556;13.430;2024-03-29T08:38:15;16.03;;;14.60;;
27293;SDS011;14785;52.556;13.430;2024-03-29T08:40:41;16.37;;;15.20;;
27293;SDS011;14785;52.556;13.430;2024-03-29T08:43:08;14.07;;;12.93;;
27293;SDS011;14785;52.556;13.430;2024-03-29T08:45:34;8.90;;;8.10;;
27293;SDS011;14785;52.556;13.430;2024-03-29T08:48:05;9.50;;;8.60;;
27293;SDS011;14785;52.556;13.430;2024-03-29T08:50:34;7.72;;;7.00;;
27293;SDS011;14785;52.556;13.430;2024-03-29T08:55:26;7.13;;;6.53;;
27293;SDS011;14785;52.556;13.430;2024-03-29T08:57:51;7.87;;;7.17;;
27293;SDS011;14785;52.556;13.430;2024-03-29T09:00:17;7.17;;;6.43;;
27293;SDS011;14785;52.556;13.430;2024-03-29T09:02:42;7.90;;;7.10;;
27293;SDS011;14785;52.556;13.430;2024-03-29T09:05:08;7.27;;;6.10;;
27293;SDS011;14785;52.556;13.430;2024-03-29T09:07:33;6.33;;;5.73;;
27293;SDS011;14785;52.556;13.430;2024-03-29T09:09:59;9.33;;;8.63;;
27293;SDS011;14785;52.556;13.430;2024-03-29T09:12:24;8.68;;;7.85;;
27293;SDS011;14785;52.556;13.430;2024-03-29T09:14:50;7.63;;;7.03;;
27293;SDS011;14785;52.556;13.430;2024-03-29T09:17:16;6.95;;;6.35;;
27293;SDS011;14785;52.556;13.430;2024-03-29T09:19:41;8.13;;;5.93;;
27293;SDS011;14785;52.556;13.430;2024-03-29T09:22:07;8.30;;;7.07;;
27293;SDS011;14785;52.556;13.430;2024-03-29T09:24:32;10.50;;;9.50;;
27293;SDS011;14785;52.556;13.430;2024-03-29T09:26:59;10.48;;;8.60;;
27293;SDS011;14785;52.556;13.430;2024-03-29T09:29:26;9.93;;;6.57;;
27293;SDS011;14785;52.556;13.430;2024-03-29T09:31:51;8.30;;;6.90;;
27293;SDS011;14785;52.556;13.430;2024-03-29T09:34:17;7.20;;;6.47;;
27293;SDS011;14785;52.556;13.430;2024-03-29T09:36:42;6.40;;;5.80;;
27293;SDS011;14785;52.556;13.430;2024-03-29T09:39:07;6.07;;;5.53;;
27293;SDS011;14785;52.556;13.430;2024-03-29T09:41:34;6.43;;;5.82;;
27293;SDS011;14785;52.556;13.430;2024-03-29T09:44:03;8.95;;;8.25;;
27293;SDS011;14785;52.556;13.430;2024-03-29T09:46:31;9.60;;;8.75;;
27293;SDS011;14785;52.556;13.430;2024-03-29T09:48:58;10.05;;;9.18;;
27293;SDS011;14785;52.556;13.430;2024-03-29T09:51:27;9.43;;;8.50;;
27293;SDS011;14785;52.556;13.430;2024-03-29T09:53:53;7.20;;;6.38;;
27293;SDS011;14785;52.556;13.430;2024-03-29T09:56:20;6.47;;;5.90;;
27293;SDS011;14785;52.556;13.430;2024-03-29T10:01:13;5.90;;;5.40;;
27293;SDS011;14785;52.556;13.430;2024-03-29T10:03:42;6.67;;;5.90;;
27293;SDS011;14785;52.556;13.430;2024-03-29T10:06:13;5.57;;;5.00;;
27293;SDS011;14785;52.556;13.430;2024-03-29T10:11:05;6.63;;;6.00;;
27293;SDS011;14785;52.556;13.430;2024-03-29T10:13:30;7.03;;;6.33;;
27293;SDS011;14785;52.556;13.430;2024-03-29T10:15:56;5.30;;;4.80;;
27293;SDS011;14785;52.556;13.430;2024-03-29T10:18:22;7.07;;;6.43;;
27293;SDS011;14785;52.556;13.430;2024-03-29T10:20:58;6.28;;;5.68;;
27293;SDS011;14785;52.556;13.430;2024-03-29T10:23:24;6.68;;;6.07;;
27293;SDS011;14785;52.556;13.430;2024-03-29T10:25:50;7.13;;;6.47;;
27293;SDS011;14785;52.556;13.430;2024-03-29T10:28:15;8.50;;;7.70;;
27293;SDS011;14785;52.556;13.430;2024-03-29T10:30:40;7.20;;;6.43;;
27293;SDS011;14785;52.556;13.430;2024-03-29T10:33:06;6.27;;;5.67;;
27293;SDS011;14785;52.556;13.430;2024-03-29T10:35:32;6.05;;;5.43;;
27293;SDS011;14785;52.556;13.430;2024-03-29T10:37:57;6.17;;;5.63;;
27293;SDS011;14785;52.556;13.430;2024-03-29T10:40:22;6.43;;;5.90;;
27293;SDS011;14785;52.556;13.430;2024-03-29T10:42:50;7.47;;;5.32;;
27293;SDS011;14785;52.556;13.430;2024-03-29T10:45:17;9.57;;;8.75;;
27293;SDS011;14785;52.556;13.430;2024-03-29T10:47:43;6.93;;;6.20;;
27293;SDS011;14785;52.556;13.430;2024-03-29T10:50:12;5.85;;;5.45;;
27293;SDS011;14785;52.556;13.430;2024-03-29T10:52:39;6.90;;;6.25;;
27293;SDS011;14785;52.556;13.430;2024-03-29T10:55:07;7.53;;;5.60;;
27293;SDS011;14785;52.556;13.430;2024-03-29T10:57:34;6.85;;;6.25;;
27293;SDS011;14785;52.556;13.430;2024-03-29T11:00:11;8.85;;;8.15;;
27293;SDS011;14785;52.556;13.430;2024-03-29T11:05:18;6.88;;;6.30;;
27293;SDS011;14785;52.556;13.430;2024-03-29T11:07:45;7.05;;;6.47;;
27293;SDS011;14785;52.556;13.430;2024-03-29T11:13:11;9.52;;;8.73;;
27293;SDS011;14785;52.556;13.430;2024-03-29T11:15:40;9.53;;;8.50;;
27293;SDS011;14785;52.556;13.430;2024-03-29T11:18:10;7.00;;;6.50;;
27293;SDS011;14785;52.556;13.430;2024-03-29T11:20:36;6.75;;;6.15;;
27293;SDS011;14785;52.556;13.430;2024-03-29T11:23:12;6.40;;;5.80;;
27293;SDS011;14785;52.556;13.430;2024-03-29T11:25:42;6.32;;;5.82;;
27293;SDS011;14785;52.556;13.430;2024-03-29T11:28:09;5.65;;;5.32;;
27293;SDS011;14785;52.556;13.430;2024-03-29T11:30:48;6.28;;;5.32;;
27293;SDS011;14785;52.556;13.430;2024-03-29T11:35:52;7.10;;;6.68;;
27293;SDS011;14785;52.556;13.430;2024-03-29T11:38:18;6.90;;;6.30;;
27293;SDS011;14785;52.556;13.430;2024-03-29T11:40:53;5.10;;;4.70;;
27293;SDS011;14785;52.556;13.430;2024-03-29T11:43:25;5.80;;;5.30;;
27293;SDS011;14785;52.556;13.430;2024-03-29T11:45:54;5.93;;;5.45;;
27293;SDS011;14785;52.556;13.430;2024-03-29T11:48:23;5.55;;;5.15;;
27293;SDS011;14785;52.556;13.430;2024-03-29T11:50:51;5.80;;;5.50;;
27293;SDS011;14785;52.556;13.430;2024-03-29T11:55:43;5.55;;;5.05;;
27293;SDS011;14785;52.556;13.430;2024-03-29T11:58:08;6.03;;;5.50;;
27293;SDS011;14785;52.556;13.430;2024-03-29T12:00:33;6.33;;;5.90;;
27293;SDS011;14785;52.556;13.430;2024-03-29T12:02:59;5.90;;;5.40;;
27293;SDS011;14785;52.556;13.430;2024-03-29T12:05:25;8.30;;;7.70;;
27293;SDS011;14785;52.556;13.430;2024-03-29T12:07:53;6.72;;;5.25;;
27293;SDS011;14785;52.556;13.430;2024-03-29T12:10:20;6.73;;;6.20;;
27293;SDS011;14785;52.556;13.430;2024-03-29T12:12:46;5.65;;;5.25;;
27293;SDS011;14785;52.556;13.430;2024-03-29T12:15:15;6.10;;;5.70;;
27293;SDS011;14785;52.556;13.430;2024-03-29T12:17:40;5.20;;;4.80;;
27293;SDS011;14785;52.556;13.430;2024-03-29T12:20:07;5.63;;;5.13;;
27293;SDS011;14785;52.556;13.430;2024-03-29T12:22:36;5.97;;;4.90;;
27293;SDS011;14785;52.556;13.430;2024-03-29T12:25:03;6.27;;;5.67;;
27293;SDS011;14785;52.556;13.430;2024-03-29T12:27:29;5.60;;;5.10;;
27293;SDS011;14785;52.556;13.430;2024-03-29T12:29:55;5.88;;;5.28;;
27293;SDS011;14785;52.556;13.430;2024-03-29T12:32:20;6.27;;;5.77;;
27293;SDS011;14785;52.556;13.430;2024-03-29T12:34:46;6.57;;;6.07;;
27293;SDS011;14785;52.556;13.430;2024-03-29T12:37:12;5.80;;;5.38;;
27293;SDS011;14785;52.556;13.430;2024-03-29T12:39:37;6.60;;;6.10;;
27293;SDS011;14785;52.556;13.430;2024-03-29T12:42:07;6.07;;;4.93;;
27293;SDS011;14785;52.556;13.430;2024-03-29T12:44:32;8.33;;;7.63;;
27293;SDS011;14785;52.556;13.430;2024-03-29T12:46:59;8.25;;;7.65;;
27293;SDS011;14785;52.556;13.430;2024-03-29T12:49:25;6.82;;;6.22;;
27293;SDS011;14785;52.556;13.430;2024-03-29T12:51:51;7.50;;;5.53;;
27293;SDS011;14785;52.556;13.430;2024-03-29T12:54:16;8.97;;;8.30;;
27293;SDS011;14785;52.556;13.430;2024-03-29T12:56:43;7.85;;;7.20;;
27293;SDS011;14785;52.556;13.430;2024-03-29T12:59:09;7.65;;;7.15;;
27293;SDS011;14785;52.556;13.430;2024-03-29T13:01:35;5.60;;;5.10;;
27293;SDS011;14785;52.556;13.430;2024-03-29T13:04:00;5.10;;;4.70;;
27293;SDS011;14785;52.556;13.430;2024-03-29T13:06:26;8.27;;;6.27;;
27293;SDS011;14785;52.556;13.430;2024-03-29T13:08:53;7.32;;;6.53;;
27293;SDS011;14785;52.556;13.430;2024-03-29T13:11:22;9.25;;;7.90;;
27293;SDS011;14785;52.556;13.430;2024-03-29T13:13:47;9.63;;;8.93;;
27293;SDS011;14785;52.556;13.430;2024-03-29T13:16:14;8.63;;;8.02;;
27293;SDS011;14785;52.556;13.430;2024-03-29T13:18:39;6.87;;;6.30;;
27293;SDS011;14785;52.556;13.430;2024-03-29T13:21:06;6.85;;;5.95;;
27293;SDS011;14785;52.556;13.430;2024-03-29T13:23:33;7.15;;;6.65;;
27293;SDS011;14785;52.556;13.430;2024-03-29T13:25:59;6.53;;;5.97;;
27293;SDS011;14785;52.556;13.430;2024-03-29T13:28:25;6.32;;;5.82;;
27293;SDS011;14785;52.556;13.430;2024-03-29T13:30:50;6.63;;;6.03;;
27293;SDS011;14785;52.556;13.430;2024-03-29T13:33:16;6.72;;;6.20;;
27293;SDS011;14785;52.556;13.430;2024-03-29T13:35:42;5.20;;;4.72;;
27293;SDS011;14785;52.556;13.430;2024-03-29T13:38:09;5.90;;;5.40;;
27293;SDS011;14785;52.556;13.430;2024-03-29T13:40:34;6.30;;;5.80;;
27293;SDS011;14785;52.556;13.430;2024-03-29T13:43:00;7.63;;;7.03;;
27293;SDS011;14785;52.556;13.430;2024-03-29T13:45:25;5.20;;;4.80;;
27293;SDS011;14785;52.556;13.430;2024-03-29T13:47:54;5.40;;;4.90;;
27293;SDS011;14785;52.556;13.430;2024-03-29T13:50:20;6.22;;;5.72;;
27293;SDS011;14785;52.556;13.430;2024-03-29T13:52:46;8.03;;;7.63;;
27293;SDS011;14785;52.556;13.430;2024-03-29T13:55:11;7.65;;;7.10;;
27293;SDS011;14785;52.556;13.430;2024-03-29T13:57:37;6.80;;;6.23;;
27293;SDS011;14785;52.556;13.430;2024-03-29T14:00:03;6.22;;;5.55;;
27293;SDS011;14785;52.556;13.430;2024-03-29T14:02:30;7.13;;;6.32;;
27293;SDS011;14785;52.556;13.430;2024-03-29T14:04:56;8.20;;;7.50;;
27293;SDS011;14785;52.556;13.430;2024-03-29T14:09:51;6.13;;;5.55;;
27293;SDS011;14785;52.556;13.430;2024-03-29T14:14:46;6.38;;;5.65;;
27293;SDS011;14785;52.556;13.430;2024-03-29T14:17:13;6.80;;;4.70;;
27293;SDS011;14785;52.556;13.430;2024-03-29T14:19:41;6.55;;;5.13;;
27293;SDS011;14785;52.556;13.430;2024-03-29T14:22:06;5.90;;;5.47;;
27293;SDS011;14785;52.556;13.430;2024-03-29T14:24:32;5.87;;;5.27;;
27293;SDS011;14785;52.556;13.430;2024-03-29T14:27:02;5.63;;;5.15;;
27293;SDS011;14785;52.556;13.430;2024-03-29T14:29:31;5.18;;;4.78;;
27293;SDS011;14785;52.556;13.430;2024-03-29T14:31:56;5.63;;;4.40;;
27293;SDS011;14785;52.556;13.430;2024-03-29T14:34:23;6.05;;;5.53;;
27293;SDS011;14785;52.556;13.430;2024-03-29T14:36:51;4.93;;;4.53;;
27293;SDS011;14785;52.556;13.430;2024-03-29T14:39:17;4.40;;;4.10;;
27293;SDS011;14785;52.556;13.430;2024-03-29T14:41:48;4.88;;;4.40;;
27293;SDS011;14785;52.556;13.430;2024-03-29T14:44:16;5.07;;;4.60;;
27293;SDS011;14785;52.556;13.430;2024-03-29T14:46:42;4.40;;;4.00;;
27293;SDS011;14785;52.556;13.430;2024-03-29T14:49:09;4.38;;;4.00;;
27293;SDS011;14785;52.556;13.430;2024-03-29T14:51:36;4.72;;;4.32;;
27293;SDS011;14785;52.556;13.430;2024-03-29T14:54:02;6.67;;;6.20;;
27293;SDS011;14785;52.556;13.430;2024-03-29T14:56:28;6.25;;;5.45;;
27293;SDS011;14785;52.556;13.430;2024-03-29T14:58:56;5.00;;;4.57;;
27293;SDS011;14785;52.556;13.430;2024-03-29T15:01:23;4.15;;;3.85;;